This is an optional block. Switch it on/off in your settings-file: $SITE['bannerTop'] = false; or $SITE['bannerBottom'] = false;

You can display ads, any other important text or photo’s using text / html or PHP code.

You can place one or more at the top and or bottom and it can all be different for content / size .



Lozoyuela more information Lozoyuela


Meteosat more information blitzortung!


Radar lluvias more information rain snow radar



Informes METAR proximidad

   
LEXJ - Santander/Parayas, Spain
Distancia hasta la estación: ESE 6 km
Actualización: 22-09-2018 03:00
Parcialmente Nublado  
Parcialmente Nublado  
   Viento: E 3.7 km/h
Viento: E 3.7 km/h
Temperatura: 18°C
Punto de rocío: 18°C
Humedad: 100%
Baromètro: 1023 hPa
Nublado: Partly Cloudy
Visibilidad: 7 km
detalles de la nube: Parcialmente Nublado ft
LEXJ 220100Z AUTO 08002KT 7000 NSC 18/18 Q1023
LEBB - Bilbao/Sondica, Spain
Distancia hasta la estación: ESE 80 km
Actualización: 22-09-2018 03:00
Parcialmente nublado  
Parcialmente nublado  
   Viento: ESE 7.4 km/h
Viento: ESE 7.4 km/h
Temperatura: 20°C
Punto de rocío: 18°C
Humedad: 88%
Baromètro: 1024 hPa
Nublado: Mostly Cloudy
Visibilidad: More than 10 km
detalles de la nube: Parcialmente nublado 2200 ft
LEBB 220100Z AUTO 11004KT 080V140 9999 BKN022/// 20/18 Q1024
LEBL - Barcelona Airpor, Spain
Distancia hasta la estación: ESE 554 km
Actualización: 22-09-2018 03:00
Nubes dispersas  
Nubes dispersas  
   Viento: NW 3.7 km/h
Viento: NW 3.7 km/h
Temperatura: 22°C
Punto de rocío: 20°C
Humedad: 88%
Baromètro: 1020 hPa
Nublado: Few Clouds
Visibilidad: More than 10 km
detalles de la nube: Nubes dispersas 1200 ft
LEBL 220100Z 32002KT 9999 FEW012 22/20 Q1020 NOSIG
LEMD - Madrid/Barajas, Spain
Distancia hasta la estación: S 325 km
Actualización: 22-09-2018 03:00
Despejado  
Despejado  
   Viento: N 11.1 km/h
Viento: N 11.1 km/h
Temperatura: 21°C
Punto de rocío: 11°C
Humedad: 53%
Baromètro: 1022 hPa
Visibilidad: More than 10 km
detalles de la nube: Despejado ft
LEMD 220100Z 35006KT CAVOK 21/11 Q1022 NOSIG
LPPT - Lisbon/Portela, Portugal
Distancia hasta la estación: SW 663 km
Actualización: 22-09-2018 03:00
Despejado  
Despejado  
   Viento: NNW 16.7 km/h
Viento: NNW 16.7 km/h
Temperatura: 18°C
Punto de rocío: 16°C
Humedad: 88%
Baromètro: 1021 hPa
Visibilidad: More than 10 km
detalles de la nube: Despejado ft
LPPT 220100Z 33009KT CAVOK 18/16 Q1021
LECO - La Coruna/Alvedr, Spain
Distancia hasta la estación: W 349 km
Actualización: 22-09-2018 03:00
Niebla, Patches of, Niebla, Nublado  
Niebla, Patches of, Niebla, Nublado  
   Viento: S 7.4 km/h
Viento: S 7.4 km/h
Temperatura: 17°C
Punto de rocío: 17°C
Humedad: 100%
Baromètro: 1022 hPa
Nublado: Overcast
Visibilidad: 2 km
detalles de la nube: Nublado 100 ft
LECO 220100Z AUTO 18004KT 2000 0100SW R03/0350N BR BCFG OVC001/// 17/17 Q1022
LEST - Santiago/Labacol, Spain
Distancia hasta la estación: W 358 km
Actualización: 22-09-2018 03:00
Patches of, Niebla, Nubes dispersas  
Patches of, Niebla, Nubes dispersas  
   Viento: SSE 5.6 km/h
Viento: SSE 5.6 km/h
Temperatura: 16°C
Punto de rocío: 16°C
Humedad: 100%
Baromètro: 1023 hPa
Nublado: Few Clouds
Visibilidad: 1 km
detalles de la nube: Nubes dispersas 100 ft
LEST 220100Z 15003KT 1200 0500E R17/1900D R35/0600D BCFG FEW001 16/16 Q1023 TEMPO 0500 BCFG
EBBR - Brussels International Airport, Belgium
Distancia hasta la estación: W 14 km
Actualización: 22-09-2018 02:50
Despejado  
Despejado  
   Viento: WSW 20.4 km/h
Viento: WSW 20.4 km/h
Temperatura: 12°C
Punto de rocío: 7°C
Humedad: 72%
Baromètro: 1019 hPa
Visibilidad: More than 10 km
detalles de la nube: Despejado ft
EBBR 220050Z 24011KT CAVOK 12/07 Q1019 NOSIG
EBBE - Beauvechain (Bevekom), Belgium
Distancia hasta la estación: SSE 17 km
Actualización: 20-09-2018 16:25
NO actual
Parcialmente Nublado  
Parcialmente Nublado  
   Viento: SSW 27.8 km/h
Viento: SSW 27.8 km/h
Temperatura: 24°C
Punto de rocío: 12°C
Humedad: 47%
Baromètro: 1015 hPa
Nublado: Partly Cloudy
Visibilidad: More than 10 km
detalles de la nube: Parcialmente Nublado 25000 ft
EBBE 201425Z 21015KT 9999 SCT250 24/12 Q1015 BLU BLU
EBDT - Schaffen, Belgium
Distancia hasta la estación: ENE 29 km
Actualización: 20-09-2018 16:25
NO actual
Parcialmente Nublado  
Parcialmente Nublado  
   Viento: SSW 20.4 km/h
Viento: SSW 20.4 km/h
Temperatura: 25°C
Punto de rocío: 12°C
Humedad: 44%
Baromètro: 1014 hPa
Nublado: Partly Cloudy
Visibilidad: More than 10 km
detalles de la nube: Parcialmente Nublado 20000 ft
EBDT 201425Z AUTO 21011KT 9999 SCT200/// 25/12 Q1014 BLU
EBAW - Antwerp/Deurne, Belgium
Distancia hasta la estación: NNW 38 km
Actualización: 22-09-2018 02:50
Despejado  
Despejado  
   Viento: WSW 14.8 km/h
Viento: WSW 14.8 km/h
Temperatura: 13°C
Punto de rocío: 7°C
Humedad: 67%
Baromètro: 1018 hPa
Visibilidad: More than 10 km
detalles de la nube: Despejado ft
EBAW 220050Z AUTO 24008KT CAVOK 13/07 Q1018
EBCI - Charleroi/Gosselies, Belgium
Distancia hasta la estación: SSW 51 km
Actualización: 22-09-2018 02:50
Nubes dispersas  
Nubes dispersas  
   Viento: SW 16.7 km/h
Viento: SW 16.7 km/h
Temperatura: 10°C
Térmica: 8°C
Punto de rocío: 7°C
Humedad: 82%
Baromètro: 1020 hPa
Nublado: Few Clouds
Visibilidad: More than 10 km
detalles de la nube: Nubes dispersas 2700 ft
EBCI 220050Z 23009KT 9999 FEW027 10/07 Q1020 NOSIG
EBLG - Bierset/Liege, Belgium
Distancia hasta la estación: ESE 60 km
Actualización: 22-09-2018 02:50
Despejado  
Despejado  
   Viento: SW 22.2 km/h
Viento: SW 22.2 km/h
Temperatura: 11°C
Punto de rocío: 7°C
Humedad: 77%
Baromètro: 1020 hPa
Visibilidad: More than 10 km
detalles de la nube: Despejado ft
EBLG 220050Z 23012KT CAVOK 11/07 Q1020 NOSIG
  

Guión original por  Saratoga-weather.org Adaptado para la plantilla por  Weerstation Leuven

Usted encontrará nuestra información del tiempo también en:

UK Metoffice

Weather Underground

Equipo utilizado:

Weather-station
Davis VP2

Weather-program
Weather Display

Weather-server
My Computer

Proveedor
My provider

Davis VP2

Weather Display

My Computer

My provider